Seabourn Quest — C6YZ5 — position and weather

sailwx.info

Track history (hours):
 
Tides and Currents Weather Stations Pressure Air Temp Water Temp Dewpoint Dewpoint Depression Visibility Wind Speed Wind Dir Waves Ship Positions

Seabourn Quest

Last reported at 2017-Apr-27 09:54 UTC. Time now 2017-Apr-27 18:44 UTC.
Position N 49°28' E 000°49'.

Length 198 m.

Type: Ship. MMSI: 311038900.

Date/timePositionNaut miles runAvg speedWind from/ knotsBaromVisibWave heightAir tempDewpointWater temp
2017-Apr-27 09:54N 49°28' E 000°49'6 7.8
2017-Apr-27 09:09N 49°29' E 000°40'213.9
2017-Apr-27 09:01N 49°27' E 000°39'4228.0
2017-Apr-27 09:00N 49°24' E 000°36'511.4 360 / 71022.9 9.2 13.7
2017-Apr-27 08:31N 49°29' E 000°32'714.2
2017-Apr-27 08:00N 49°26' E 000°21'815.4
2017-Apr-27 07:30N 49°26' E 000°09'714.4
2017-Apr-27 07:00N 49°28' W 000°01'5 9.1
2017-Apr-27 06:30N 49°30' W 000°08'4 8.3
2017-Apr-27 06:01N 49°31' W 000°14'4 8.4
2017-Apr-27 05:31N 49°33' W 000°19'4 8.4
2017-Apr-27 05:01N 49°36' W 000°24'5 9.2
2017-Apr-27 04:30N 49°39' W 000°29'5 9.4
2017-Apr-27 04:00N 49°42' W 000°35'5 9.5
2017-Apr-27 03:30N 49°45' W 000°41'5 9.2
2017-Apr-27 03:01N 49°48' W 000°47'5 9.1
2017-Apr-27 02:30N 49°50' W 000°52'74 8.3
2017-Apr-26 17:34N 50°34' W 002°26'0 0.0
2017-Apr-26 03:26N 50°35' W 002°25'2 4.3
2017-Apr-26 02:58N 50°35' W 002°22'4411.1
2017-Apr-25 23:02N 49°53' W 002°40'212.2
2017-Apr-25 22:50N 49°53' W 002°44'412.3
2017-Apr-25 22:30N 49°51' W 002°50'1312.7
2017-Apr-25 21:31N 49°45' W 003°07'012.4
2017-Apr-25 21:30N 49°45' W 003°07'813.0
2017-Apr-25 20:52N 49°41' W 003°18'8413.9
2017-Apr-25 14:52N 48°58' W 005°08'1514.9
2017-Apr-25 13:53N 48°51' W 005°28'3913.4
2017-Apr-25 11:00N 48°12' W 005°30'1 1.5 040 / 271020.1 9.0 12.0
2017-Apr-25 10:39N 48°12' W 005°31'1513.6
2017-Apr-25 09:33N 47°59' W 005°22'613.7
2017-Apr-25 09:05N 47°54' W 005°16'113.8
2017-Apr-25 08:59N 47°53' W 005°15'714.2
2017-Apr-25 08:30N 47°48' W 005°08'714.2
2017-Apr-25 08:00N 47°42' W 005°01'12818.2
2017-Apr-25 01:00N 46°12' W 002°48'227.7 040 / 231015.0 13.0 6.813.0
2017-Apr-25 00:54N 46°13' W 002°51'3318.2
2017-Apr-24 23:05N 45°54' W 002°12'218.4
2017-Apr-24 23:00N 45°53' W 002°10'918.6
2017-Apr-24 22:30N 45°48' W 001°59'918.5
2017-Apr-24 22:00N 45°44' W 001°47'918.4
2017-Apr-24 21:30N 45°39' W 001°36'917.5
2017-Apr-24 21:00N 45°36' W 001°24'714.3
2017-Apr-24 20:30N 45°39' W 001°15'1618.2
2017-Apr-24 19:39N 45°30' W 000°57'319.0
2017-Apr-24 19:30N 45°28' W 000°55'15 0.3
2017-Apr-22 23:13N 45°39' W 001°09'23 8.1
2017-Apr-22 20:19N 45°49' W 001°39'3 8.5
2017-Apr-22 20:00N 45°52' W 001°40'4 8.9
2017-Apr-22 19:30N 45°56' W 001°42'4 9.0
2017-Apr-22 19:00N 46°00' W 001°41'4 8.9
2017-Apr-22 18:30N 46°04' W 001°40'4 7.9
2017-Apr-22 17:59N 46°08' W 001°38'712.2
2017-Apr-22 17:25N 46°07' W 001°29'4 9.5
2017-Apr-22 17:00N 46°06' W 001°23'510.0
2017-Apr-22 16:30N 46°06' W 001°16'3 6.7
2017-Apr-22 15:59N 46°10' W 001°14'0 0.0
2017-Apr-22 15:25N 46°10' W 001°14'0 0.0
2017-Apr-22 14:58N 46°10' W 001°14'0 0.0
2017-Apr-22 14:30N 46°10' W 001°14'0 0.0
2017-Apr-22 13:29N 46°10' W 001°14'0 0.0
2017-Apr-22 12:59N 46°10' W 001°14'0 0.0
2017-Apr-22 12:29N 46°10' W 001°14'0 0.0
2017-Apr-22 11:59N 46°10' W 001°14'0 0.0
2017-Apr-22 11:28N 46°10' W 001°14'0 0.0
2017-Apr-22 10:58N 46°10' W 001°14'0 0.0
2017-Apr-22 10:28N 46°10' W 001°14'0 0.0
2017-Apr-22 09:59N 46°10' W 001°14'0 0.0
2017-Apr-22 09:26N 46°10' W 001°14'0 0.0
2017-Apr-22 08:56N 46°10' W 001°14'0 0.0
2017-Apr-22 08:26N 46°10' W 001°14'0 0.0
2017-Apr-22 07:59N 46°10' W 001°14'0 0.0
2017-Apr-22 07:26N 46°10' W 001°14'0 0.0
2017-Apr-22 07:00N 46°10' W 001°14'0 1.0
2017-Apr-22 06:30N 46°09' W 001°15'4 7.8
2017-Apr-22 06:00N 46°06' W 001°17'510.7
2017-Apr-22 05:30N 46°06' W 001°25'612.4
2017-Apr-22 05:00N 46°07' W 001°34'510.5
2017-Apr-22 04:30N 46°06' W 001°41'612.2
2017-Apr-22 04:00N 46°00' W 001°44'612.4
2017-Apr-22 03:30N 45°54' W 001°46'812.4
2017-Apr-22 02:49N 45°46' W 001°50'512.5
2017-Apr-22 02:27N 45°42' W 001°53'1226.3
2017-Apr-22 02:00N 45°30' W 001°54'548.1 070 / 161028.0 13.2-0.013.7
2017-Apr-22 01:53N 45°35' W 001°57'1613.7
2017-Apr-22 00:45N 45°20' W 002°04'1613.7
2017-Apr-21 23:36N 45°06' W 002°13'114.0
2017-Apr-21 23:30N 45°04' W 002°13'134 6.2
2017-Apr-21 02:00N 43°42' W 004°42'2319.0 090 / 301027.0 13.5-3.213.5
2017-Apr-21 00:48N 43°45' W 005°13'617.8
2017-Apr-21 00:28N 43°46' W 005°21'917.4
2017-Apr-20 23:58N 43°46' W 005°33'19711.6
2017-Apr-20 07:00N 42°42' W 009°48'4221.0 060 / 331013.0 14.5 14.0
2017-Apr-20 05:00N 42°00' W 009°48'16418.8 070 / 251010.0
2017-Apr-19 20:17N 39°16' W 009°45'619.7
2017-Apr-19 20:00N 39°11' W 009°45'1019.6
2017-Apr-19 19:31N 39°01' W 009°43'1019.7
2017-Apr-19 19:00N 38°51' W 009°42'1019.8
2017-Apr-19 18:30N 38°41' W 009°43'917.2
2017-Apr-19 18:00N 38°37' W 009°34'817.0
2017-Apr-19 17:30N 38°37' W 009°23'713.6
2017-Apr-19 17:01N 38°41' W 009°16'5 9.7
2017-Apr-19 16:30N 38°42' W 009°10'0 0.1
2017-Apr-19 15:55N 38°42' W 009°10'0 0.0
2017-Apr-19 15:27N 38°42' W 009°10'0 0.0
2017-Apr-19 14:53N 38°42' W 009°10'0 0.0
2017-Apr-19 14:17N 38°42' W 009°10'0 0.0
2017-Apr-19 13:14N 38°42' W 009°10'0 0.0
2017-Apr-19 12:53N 38°42' W 009°10'0 0.0
2017-Apr-19 12:23N 38°42' W 009°10'0 0.0
2017-Apr-19 11:59N 38°42' W 009°10'0 0.0
2017-Apr-19 11:23N 38°42' W 009°10'0 0.0
2017-Apr-19 10:58N 38°42' W 009°10'0 0.0
2017-Apr-19 10:25N 38°42' W 009°10'0 0.0
2017-Apr-19 10:00N 38°42' W 009°10'0 0.0
2017-Apr-19 09:28N 38°42' W 009°10'0 0.0
2017-Apr-19 09:00N 38°42' W 009°10'0 0.0
2017-Apr-19 08:30N 38°42' W 009°10'0 0.0
2017-Apr-19 07:54N 38°42' W 009°10'0 0.0
2017-Apr-19 07:29N 38°42' W 009°10'0 0.0
2017-Apr-19 06:38N 38°42' W 009°10'0 0.5
2017-Apr-19 06:29N 38°42' W 009°09'2 3.8
2017-Apr-19 06:00N 38°41' W 009°12'4 9.0
2017-Apr-19 05:30N 38°41' W 009°17'510.0
2017-Apr-19 05:00N 38°37' W 009°22'612.1
2017-Apr-19 04:30N 38°32' W 009°25'612.4
2017-Apr-19 04:00N 38°26' W 009°25'612.5
2017-Apr-19 03:30N 38°19' W 009°25'612.3
2017-Apr-19 03:00N 38°13' W 009°24'612.4
2017-Apr-19 02:30N 38°07' W 009°24'713.5
2017-Apr-19 02:00N 38°00' W 009°24'714.5
2017-Apr-19 01:30N 37°53' W 009°24'714.7
2017-Apr-19 01:00N 37°46' W 009°23'814.6
2017-Apr-19 00:29N 37°38' W 009°23'1529.9
2017-Apr-19 00:00N 37°24' W 009°18'3811.5 090 / 51011.010.8 19.0 6.717.3
2017-Apr-18 20:42N 36°47' W 009°12'314.7
2017-Apr-18 20:29N 36°44' W 009°09'714.5
2017-Apr-18 20:01N 36°42' W 009°00'3113.5
2017-Apr-18 17:43N 37°04' W 008°34'4 0.3
2017-Apr-18 07:11N 37°08' W 008°32'0 0.0
2017-Apr-18 06:47N 37°08' W 008°32'0 0.1
2017-Apr-18 06:29N 37°08' W 008°32'1 2.5
2017-Apr-18 06:00N 37°06' W 008°32'4 7.2
2017-Apr-18 05:25N 37°02' W 008°31'511.3
2017-Apr-18 05:00N 36°60' W 008°26'812.2
2017-Apr-18 04:21N 36°55' W 008°18'712.5
2017-Apr-18 03:47N 36°51' W 008°10'412.1
2017-Apr-18 03:29N 36°50' W 008°06'12014.2
2017-Apr-17 19:00N 35°54' W 005°54'1414.0 100 / 181017.8 5.4 18.7 17.1
2017-Apr-17 18:00N 35°58' W 005°38'713.7
2017-Apr-17 17:30N 35°60' W 005°30'612.3
2017-Apr-17 17:00N 36°04' W 005°24'510.0
2017-Apr-17 16:30N 36°09' W 005°22'0 0.4
2017-Apr-17 16:01N 36°09' W 005°22'0 0.0
2017-Apr-17 15:30N 36°09' W 005°22'0 0.0
2017-Apr-17 15:00N 36°09' W 005°22'0 0.0
2017-Apr-17 14:30N 36°09' W 005°22'0 0.0
2017-Apr-17 13:28N 36°09' W 005°22'0 0.0
2017-Apr-17 13:00N 36°09' W 005°22'0 0.0
2017-Apr-17 12:30N 36°09' W 005°22'0 0.0
2017-Apr-17 12:00N 36°09' W 005°22'0 0.0
2017-Apr-17 11:30N 36°09' W 005°22'0 0.0
2017-Apr-17 11:00N 36°09' W 005°22'0 0.0
2017-Apr-17 10:30N 36°09' W 005°22'0 0.0
2017-Apr-17 10:00N 36°09' W 005°22'  
Track history (hours):
 
Tides and Currents Weather Stations Pressure Air Temp Water Temp Dewpoint Dewpoint Depression Visibility Wind Speed Wind Dir Waves Ship Positions

Seabourn Quest

Last reported at 2017-Apr-27 09:54 UTC. Time now 2017-Apr-27 18:44 UTC.
Position N 49°28' E 000°49'.

Length 198 m.

Type: Ship. MMSI: 311038900.

Date/timePositionNaut miles runAvg speedWind from/ knotsBaromVisibWave heightAir tempDewpointWater temp
2017-Apr-27 09:54N 49°28' E 000°49'6 7.8
2017-Apr-27 09:09N 49°29' E 000°40'213.9
2017-Apr-27 09:01N 49°27' E 000°39'4228.0
2017-Apr-27 09:00N 49°24' E 000°36'511.4 360 / 71022.9 9.2 13.7
2017-Apr-27 08:31N 49°29' E 000°32'714.2
2017-Apr-27 08:00N 49°26' E 000°21'815.4
2017-Apr-27 07:30N 49°26' E 000°09'714.4
2017-Apr-27 07:00N 49°28' W 000°01'5 9.1
2017-Apr-27 06:30N 49°30' W 000°08'4 8.3
2017-Apr-27 06:01N 49°31' W 000°14'4 8.4
2017-Apr-27 05:31N 49°33' W 000°19'4 8.4
2017-Apr-27 05:01N 49°36' W 000°24'5 9.2
2017-Apr-27 04:30N 49°39' W 000°29'5 9.4
2017-Apr-27 04:00N 49°42' W 000°35'5 9.5
2017-Apr-27 03:30N 49°45' W 000°41'5 9.2
2017-Apr-27 03:01N 49°48' W 000°47'5 9.1
2017-Apr-27 02:30N 49°50' W 000°52'74 8.3
2017-Apr-26 17:34N 50°34' W 002°26'0 0.0
2017-Apr-26 03:26N 50°35' W 002°25'2 4.3
2017-Apr-26 02:58N 50°35' W 002°22'4411.1
2017-Apr-25 23:02N 49°53' W 002°40'212.2
2017-Apr-25 22:50N 49°53' W 002°44'412.3
2017-Apr-25 22:30N 49°51' W 002°50'1312.7
2017-Apr-25 21:31N 49°45' W 003°07'012.4
2017-Apr-25 21:30N 49°45' W 003°07'813.0
2017-Apr-25 20:52N 49°41' W 003°18'8413.9
2017-Apr-25 14:52N 48°58' W 005°08'1514.9
2017-Apr-25 13:53N 48°51' W 005°28'3913.4
2017-Apr-25 11:00N 48°12' W 005°30'1 1.5 040 / 271020.1 9.0 12.0
2017-Apr-25 10:39N 48°12' W 005°31'1513.6
2017-Apr-25 09:33N 47°59' W 005°22'613.7
2017-Apr-25 09:05N 47°54' W 005°16'113.8
2017-Apr-25 08:59N 47°53' W 005°15'714.2
2017-Apr-25 08:30N 47°48' W 005°08'714.2
2017-Apr-25 08:00N 47°42' W 005°01'12818.2
2017-Apr-25 01:00N 46°12' W 002°48'227.7 040 / 231015.0 13.0 6.813.0
2017-Apr-25 00:54N 46°13' W 002°51'3318.2
2017-Apr-24 23:05N 45°54' W 002°12'218.4
2017-Apr-24 23:00N 45°53' W 002°10'918.6
2017-Apr-24 22:30N 45°48' W 001°59'918.5
2017-Apr-24 22:00N 45°44' W 001°47'918.4
2017-Apr-24 21:30N 45°39' W 001°36'917.5
2017-Apr-24 21:00N 45°36' W 001°24'714.3
2017-Apr-24 20:30N 45°39' W 001°15'1618.2
2017-Apr-24 19:39N 45°30' W 000°57'319.0
2017-Apr-24 19:30N 45°28' W 000°55'15 0.3
2017-Apr-22 23:13N 45°39' W 001°09'23 8.1
2017-Apr-22 20:19N 45°49' W 001°39'3 8.5
2017-Apr-22 20:00N 45°52' W 001°40'4 8.9
2017-Apr-22 19:30N 45°56' W 001°42'4 9.0
2017-Apr-22 19:00N 46°00' W 001°41'4 8.9
2017-Apr-22 18:30N 46°04' W 001°40'4 7.9
2017-Apr-22 17:59N 46°08' W 001°38'712.2
2017-Apr-22 17:25N 46°07' W 001°29'4 9.5
2017-Apr-22 17:00N 46°06' W 001°23'510.0
2017-Apr-22 16:30N 46°06' W 001°16'3 6.7
2017-Apr-22 15:59N 46°10' W 001°14'0 0.0
2017-Apr-22 15:25N 46°10' W 001°14'0 0.0
2017-Apr-22 14:58N 46°10' W 001°14'0 0.0
2017-Apr-22 14:30N 46°10' W 001°14'0 0.0
2017-Apr-22 13:29N 46°10' W 001°14'0 0.0
2017-Apr-22 12:59N 46°10' W 001°14'0 0.0
2017-Apr-22 12:29N 46°10' W 001°14'0 0.0
2017-Apr-22 11:59N 46°10' W 001°14'0 0.0
2017-Apr-22 11:28N 46°10' W 001°14'0 0.0
2017-Apr-22 10:58N 46°10' W 001°14'0 0.0
2017-Apr-22 10:28N 46°10' W 001°14'0 0.0
2017-Apr-22 09:59N 46°10' W 001°14'0 0.0
2017-Apr-22 09:26N 46°10' W 001°14'0 0.0
2017-Apr-22 08:56N 46°10' W 001°14'0 0.0
2017-Apr-22 08:26N 46°10' W 001°14'0 0.0
2017-Apr-22 07:59N 46°10' W 001°14'0 0.0
2017-Apr-22 07:26N 46°10' W 001°14'0 0.0
2017-Apr-22 07:00N 46°10' W 001°14'0 1.0
2017-Apr-22 06:30N 46°09' W 001°15'4 7.8
2017-Apr-22 06:00N 46°06' W 001°17'510.7
2017-Apr-22 05:30N 46°06' W 001°25'612.4
2017-Apr-22 05:00N 46°07' W 001°34'510.5
2017-Apr-22 04:30N 46°06' W 001°41'612.2
2017-Apr-22 04:00N 46°00' W 001°44'612.4
2017-Apr-22 03:30N 45°54' W 001°46'812.4
2017-Apr-22 02:49N 45°46' W 001°50'512.5
2017-Apr-22 02:27N 45°42' W 001°53'1226.3
2017-Apr-22 02:00N 45°30' W 001°54'548.1 070 / 161028.0 13.2-0.013.7
2017-Apr-22 01:53N 45°35' W 001°57'1613.7
2017-Apr-22 00:45N 45°20' W 002°04'1613.7
2017-Apr-21 23:36N 45°06' W 002°13'114.0
2017-Apr-21 23:30N 45°04' W 002°13'134 6.2
2017-Apr-21 02:00N 43°42' W 004°42'2319.0 090 / 301027.0 13.5-3.213.5
2017-Apr-21 00:48N 43°45' W 005°13'617.8
2017-Apr-21 00:28N 43°46' W 005°21'917.4
2017-Apr-20 23:58N 43°46' W 005°33'19711.6
2017-Apr-20 07:00N 42°42' W 009°48'4221.0 060 / 331013.0 14.5 14.0
2017-Apr-20 05:00N 42°00' W 009°48'16418.8 070 / 251010.0
2017-Apr-19 20:17N 39°16' W 009°45'619.7
2017-Apr-19 20:00N 39°11' W 009°45'1019.6
2017-Apr-19 19:31N 39°01' W 009°43'1019.7
2017-Apr-19 19:00N 38°51' W 009°42'1019.8
2017-Apr-19 18:30N 38°41' W 009°43'917.2
2017-Apr-19 18:00N 38°37' W 009°34'817.0
2017-Apr-19 17:30N 38°37' W 009°23'713.6
2017-Apr-19 17:01N 38°41' W 009°16'5 9.7
2017-Apr-19 16:30N 38°42' W 009°10'0 0.1
2017-Apr-19 15:55N 38°42' W 009°10'0 0.0
2017-Apr-19 15:27N 38°42' W 009°10'0 0.0
2017-Apr-19 14:53N 38°42' W 009°10'0 0.0
2017-Apr-19 14:17N 38°42' W 009°10'0 0.0
2017-Apr-19 13:14N 38°42' W 009°10'0 0.0
2017-Apr-19 12:53N 38°42' W 009°10'0 0.0
2017-Apr-19 12:23N 38°42' W 009°10'0 0.0
2017-Apr-19 11:59N 38°42' W 009°10'0 0.0
2017-Apr-19 11:23N 38°42' W 009°10'0 0.0
2017-Apr-19 10:58N 38°42' W 009°10'0 0.0
2017-Apr-19 10:25N 38°42' W 009°10'0 0.0
2017-Apr-19 10:00N 38°42' W 009°10'0 0.0
2017-Apr-19 09:28N 38°42' W 009°10'0 0.0
2017-Apr-19 09:00N 38°42' W 009°10'0 0.0
2017-Apr-19 08:30N 38°42' W 009°10'0 0.0
2017-Apr-19 07:54N 38°42' W 009°10'0 0.0
2017-Apr-19 07:29N 38°42' W 009°10'0 0.0
2017-Apr-19 06:38N 38°42' W 009°10'0 0.5
2017-Apr-19 06:29N 38°42' W 009°09'2 3.8
2017-Apr-19 06:00N 38°41' W 009°12'4 9.0
2017-Apr-19 05:30N 38°41' W 009°17'510.0
2017-Apr-19 05:00N 38°37' W 009°22'612.1
2017-Apr-19 04:30N 38°32' W 009°25'612.4
2017-Apr-19 04:00N 38°26' W 009°25'612.5
2017-Apr-19 03:30N 38°19' W 009°25'612.3
2017-Apr-19 03:00N 38°13' W 009°24'612.4
2017-Apr-19 02:30N 38°07' W 009°24'713.5
2017-Apr-19 02:00N 38°00' W 009°24'714.5
2017-Apr-19 01:30N 37°53' W 009°24'714.7
2017-Apr-19 01:00N 37°46' W 009°23'814.6
2017-Apr-19 00:29N 37°38' W 009°23'1529.9
2017-Apr-19 00:00N 37°24' W 009°18'3811.5 090 / 51011.010.8 19.0 6.717.3
2017-Apr-18 20:42N 36°47' W 009°12'314.7
2017-Apr-18 20:29N 36°44' W 009°09'714.5
2017-Apr-18 20:01N 36°42' W 009°00'3113.5
2017-Apr-18 17:43N 37°04' W 008°34'4 0.3
2017-Apr-18 07:11N 37°08' W 008°32'0 0.0
2017-Apr-18 06:47N 37°08' W 008°32'0 0.1
2017-Apr-18 06:29N 37°08' W 008°32'1 2.5
2017-Apr-18 06:00N 37°06' W 008°32'4 7.2
2017-Apr-18 05:25N 37°02' W 008°31'511.3
2017-Apr-18 05:00N 36°60' W 008°26'812.2
2017-Apr-18 04:21N 36°55' W 008°18'712.5
2017-Apr-18 03:47N 36°51' W 008°10'412.1
2017-Apr-18 03:29N 36°50' W 008°06'12014.2
2017-Apr-17 19:00N 35°54' W 005°54'1414.0 100 / 181017.8 5.4 18.7 17.1
2017-Apr-17 18:00N 35°58' W 005°38'713.7
2017-Apr-17 17:30N 35°60' W 005°30'612.3
2017-Apr-17 17:00N 36°04' W 005°24'510.0
2017-Apr-17 16:30N 36°09' W 005°22'0 0.4
2017-Apr-17 16:01N 36°09' W 005°22'0 0.0
2017-Apr-17 15:30N 36°09' W 005°22'0 0.0
2017-Apr-17 15:00N 36°09' W 005°22'0 0.0
2017-Apr-17 14:30N 36°09' W 005°22'0 0.0
2017-Apr-17 13:28N 36°09' W 005°22'0 0.0
2017-Apr-17 13:00N 36°09' W 005°22'0 0.0
2017-Apr-17 12:30N 36°09' W 005°22'0 0.0
2017-Apr-17 12:00N 36°09' W 005°22'0 0.0
2017-Apr-17 11:30N 36°09' W 005°22'0 0.0
2017-Apr-17 11:00N 36°09' W 005°22'0 0.0
2017-Apr-17 10:30N 36°09' W 005°22'0 0.0
2017-Apr-17 10:00N 36°09' W 005°22'  

Dump ship's entire track history